Grand Portage, Minnesota
Current Conditions -  °F | °C
As of 8:07 AM on Thursday 30 Oct 2014 (Local Time) from CYQT Reporting Station
Light Rain Light Rain  
Wind Chill: 36°   Ceiling: 6000
Heat Index: 36°   Visibility: 20mi
Dew Point: 36°   Wind: 3mph
Humidity: 100%   Direction: 320°NW
Pressure: 30.03"   Gusts: NA
Location:  47.96°N, 89.68°W
Report Text: CYQT 301307Z 32003KT 240V320 20SM -RA FEW002 FEW011 SCT042 OVC060 02/02 A3003 RMK SF1SC2SC1SC5 SF TR SLP180
Loading
Personal Weather Stations






























Interactive Weather Map
Tropical Storm Tracking
New forecast layout! Learn more

10-Day Weather Forecast

Advertisements
Track Severe Weather on mobile